createdAt,value
2022-12-28T00:00:24.448Z,985.93
2022-12-28T00:01:24.305Z,985.92
2022-12-28T00:02:24.370Z,985.88
2022-12-28T00:03:24.320Z,985.92
2022-12-28T00:04:24.267Z,985.92
2022-12-28T00:05:24.463Z,985.97
2022-12-28T00:06:24.226Z,985.95
2022-12-28T00:07:24.217Z,985.96
2022-12-28T00:08:24.208Z,985.92
2022-12-28T00:09:24.187Z,985.91
2022-12-28T00:11:08.392Z,985.91
2022-12-28T00:11:27.663Z,985.86
2022-12-28T00:12:25.163Z,985.86
2022-12-28T00:13:24.131Z,985.78
2022-12-28T00:14:24.117Z,985.83
2022-12-28T00:15:24.115Z,985.78
2022-12-28T00:16:24.156Z,985.74
2022-12-28T00:17:24.080Z,985.68
2022-12-28T00:18:24.074Z,985.72
2022-12-28T00:19:24.071Z,985.74
2022-12-28T00:20:24.036Z,985.80
2022-12-28T00:21:24.067Z,985.79
2022-12-28T00:22:24.023Z,985.76
2022-12-28T00:23:24.002Z,985.83
2022-12-28T00:24:23.990Z,985.78
2022-12-28T00:25:23.971Z,985.78
2022-12-28T00:26:23.974Z,985.86
2022-12-28T00:27:23.952Z,985.73
2022-12-28T00:28:23.934Z,985.79
2022-12-28T00:29:23.927Z,985.79
2022-12-28T00:30:23.911Z,985.78
2022-12-28T00:31:23.911Z,985.68
2022-12-28T00:32:23.880Z,985.72
2022-12-28T00:33:23.871Z,985.71
2022-12-28T00:34:23.857Z,985.71
2022-12-28T00:35:23.842Z,985.71
2022-12-28T00:36:23.843Z,985.77
2022-12-28T00:37:23.874Z,985.71
2022-12-28T00:38:23.803Z,985.70
2022-12-28T00:39:23.799Z,985.62
2022-12-28T00:40:24.349Z,985.64
2022-12-28T00:41:23.771Z,985.65
2022-12-28T00:42:23.751Z,985.75
2022-12-28T00:43:23.744Z,985.65
2022-12-28T00:44:23.739Z,985.70
2022-12-28T00:45:23.774Z,985.75
2022-12-28T00:46:23.700Z,985.67
2022-12-28T00:47:23.683Z,985.73
2022-12-28T00:48:23.675Z,985.71
2022-12-28T00:49:23.667Z,985.71
2022-12-28T00:50:23.654Z,985.76
2022-12-28T00:51:23.649Z,985.72
2022-12-28T00:52:23.623Z,985.70
2022-12-28T00:53:23.639Z,985.72
2022-12-28T00:54:23.593Z,985.67
2022-12-28T00:55:23.581Z,985.68
2022-12-28T00:56:23.565Z,985.56
2022-12-28T00:57:23.553Z,985.55
2022-12-28T00:58:23.544Z,985.64
2022-12-28T00:59:23.528Z,985.68
2022-12-28T01:00:23.566Z,985.63
2022-12-28T01:01:23.573Z,985.62
2022-12-28T01:02:23.493Z,985.55
2022-12-28T01:03:23.475Z,985.52
2022-12-28T01:04:23.462Z,985.58
2022-12-28T01:05:23.450Z,985.51
2022-12-28T01:06:23.440Z,985.43
2022-12-28T01:07:23.424Z,985.50
2022-12-28T01:08:23.411Z,985.50
2022-12-28T01:09:23.439Z,985.49
2022-12-28T01:10:23.590Z,985.51
2022-12-28T01:11:23.372Z,985.51
2022-12-28T01:12:23.361Z,985.49
2022-12-28T01:13:23.349Z,985.52
2022-12-28T01:14:23.332Z,985.52
2022-12-28T01:15:23.322Z,985.50
2022-12-28T01:16:23.385Z,985.45
2022-12-28T01:17:23.291Z,985.37
2022-12-28T01:18:23.279Z,985.38
2022-12-28T01:19:23.277Z,985.37
2022-12-28T01:20:23.252Z,985.36
2022-12-28T01:21:23.247Z,985.36
2022-12-28T01:22:23.231Z,985.40
2022-12-28T01:23:23.212Z,985.41
2022-12-28T01:24:23.196Z,985.39
2022-12-28T01:25:23.209Z,985.34
2022-12-28T01:26:23.179Z,985.30
2022-12-28T01:27:23.169Z,985.27
2022-12-28T01:28:23.145Z,985.30
2022-12-28T01:29:23.137Z,985.28
2022-12-28T01:30:23.137Z,985.28
2022-12-28T01:31:23.205Z,985.25
2022-12-28T01:32:23.105Z,985.22
2022-12-28T01:33:23.084Z,985.24
2022-12-28T01:34:23.067Z,985.20
2022-12-28T01:35:23.058Z,985.25
2022-12-28T01:36:23.049Z,985.21
2022-12-28T01:37:23.031Z,985.16
2022-12-28T01:38:23.023Z,985.12
2022-12-28T01:39:23.004Z,985.12
2022-12-28T01:40:22.995Z,985.09
2022-12-28T01:41:22.997Z,985.14
2022-12-28T01:42:22.974Z,985.13
2022-12-28T01:43:29.365Z,985.12
2022-12-28T01:44:22.936Z,985.17
2022-12-28T01:45:22.926Z,985.10
2022-12-28T01:46:22.912Z,985.12
2022-12-28T01:47:22.899Z,985.04
2022-12-28T01:48:22.895Z,984.92
2022-12-28T01:49:22.878Z,984.91
2022-12-28T01:50:22.864Z,984.98
2022-12-28T01:51:22.854Z,984.97
2022-12-28T01:52:22.836Z,984.90
2022-12-28T01:53:22.814Z,984.87
2022-12-28T01:54:22.813Z,984.97
2022-12-28T01:55:22.807Z,984.88
2022-12-28T01:56:22.780Z,984.76
2022-12-28T01:57:22.798Z,984.73
2022-12-28T01:58:22.761Z,984.75
2022-12-28T01:59:22.756Z,984.71
2022-12-28T02:00:22.734Z,984.67
2022-12-28T02:01:22.847Z,984.59
2022-12-28T02:02:22.921Z,984.58
2022-12-28T02:03:22.869Z,984.58
2022-12-28T02:04:22.683Z,984.54
2022-12-28T02:05:22.667Z,984.51
2022-12-28T02:06:22.655Z,984.53
2022-12-28T02:07:22.633Z,984.51
2022-12-28T02:08:22.621Z,984.48
2022-12-28T02:09:22.607Z,984.51
2022-12-28T02:10:42.474Z,984.49
2022-12-28T02:11:22.582Z,984.44
2022-12-28T02:12:22.572Z,984.54
2022-12-28T02:13:22.578Z,984.47
2022-12-28T02:14:22.541Z,984.53
2022-12-28T02:15:23.392Z,984.46
2022-12-28T02:16:22.577Z,984.47
2022-12-28T02:17:22.502Z,984.52
2022-12-28T02:18:22.496Z,984.57
2022-12-28T02:19:22.488Z,984.49
2022-12-28T02:20:22.467Z,984.51
2022-12-28T02:21:22.472Z,984.46
2022-12-28T02:22:22.436Z,984.56
2022-12-28T02:23:22.425Z,984.47
2022-12-28T02:24:22.430Z,984.45
2022-12-28T02:25:22.398Z,984.40
2022-12-28T02:26:22.383Z,984.40
2022-12-28T02:27:22.389Z,984.42
2022-12-28T02:28:22.362Z,984.41
2022-12-28T02:29:22.368Z,984.35
2022-12-28T02:30:22.332Z,984.29
2022-12-28T02:31:22.315Z,984.26
2022-12-28T02:32:22.311Z,984.30
2022-12-28T02:33:22.294Z,984.28
2022-12-28T02:34:22.338Z,984.31
2022-12-28T02:35:22.262Z,984.30
2022-12-28T02:36:22.250Z,984.29
2022-12-28T02:37:22.254Z,984.31
2022-12-28T02:38:22.229Z,984.32
2022-12-28T02:39:22.210Z,984.30
2022-12-28T02:40:22.204Z,984.24
2022-12-28T02:41:22.186Z,984.37
2022-12-28T02:42:22.177Z,984.25
2022-12-28T02:43:22.157Z,984.29
2022-12-28T02:44:22.149Z,984.35
2022-12-28T02:45:22.161Z,984.28
2022-12-28T02:46:22.140Z,984.25
2022-12-28T02:47:22.104Z,984.22
2022-12-28T02:48:22.095Z,984.22
2022-12-28T02:49:22.077Z,984.22
2022-12-28T02:50:22.069Z,984.20
2022-12-28T02:51:22.049Z,984.11
2022-12-28T02:52:22.038Z,984.20
2022-12-28T02:53:22.029Z,984.21
2022-12-28T02:54:22.014Z,984.17
2022-12-28T02:55:22.000Z,984.16
2022-12-28T02:56:21.999Z,984.12
2022-12-28T02:57:22.005Z,984.09
2022-12-28T02:58:21.965Z,984.10
2022-12-28T02:59:21.961Z,984.10
2022-12-28T03:00:21.939Z,984.08
2022-12-28T03:01:22.031Z,984.05
2022-12-28T03:02:22.088Z,983.95
2022-12-28T03:03:22.017Z,983.89
2022-12-28T03:04:21.882Z,983.85
2022-12-28T03:05:21.867Z,983.80
2022-12-28T03:06:26.927Z,983.81
2022-12-28T03:07:22.872Z,983.76
2022-12-28T03:08:21.830Z,983.83
2022-12-28T03:09:21.821Z,983.76
2022-12-28T03:10:21.800Z,983.74
2022-12-28T03:11:21.788Z,983.69
2022-12-28T03:12:21.774Z,983.63
2022-12-28T03:13:21.772Z,983.66
2022-12-28T03:14:21.754Z,983.59
2022-12-28T03:15:21.736Z,983.63
2022-12-28T03:16:21.829Z,983.58
2022-12-28T03:17:21.729Z,983.61
2022-12-28T03:18:21.694Z,983.61
2022-12-28T03:19:21.686Z,983.64
2022-12-28T03:20:21.676Z,983.59
2022-12-28T03:21:21.667Z,983.56
2022-12-28T03:22:21.639Z,983.59
2022-12-28T03:23:21.631Z,983.54
2022-12-28T03:24:21.635Z,983.58
2022-12-28T03:25:21.602Z,983.52
2022-12-28T03:26:21.608Z,983.53
2022-12-28T03:27:21.584Z,983.50
2022-12-28T03:28:21.560Z,983.50
2022-12-28T03:29:21.564Z,983.39
2022-12-28T03:30:21.547Z,983.43
2022-12-28T03:31:21.539Z,983.37
2022-12-28T03:32:21.507Z,983.45
2022-12-28T03:33:21.523Z,983.40
2022-12-28T03:34:21.486Z,983.45
2022-12-28T03:35:21.468Z,983.34
2022-12-28T03:36:21.453Z,983.32
2022-12-28T03:37:21.442Z,983.30
2022-12-28T03:38:21.429Z,983.29
2022-12-28T03:39:21.418Z,983.37
2022-12-28T03:40:21.603Z,983.32
2022-12-28T03:41:21.390Z,983.33
2022-12-28T03:42:21.383Z,983.32
2022-12-28T03:43:21.365Z,983.34
2022-12-28T03:44:21.349Z,983.34
2022-12-28T03:45:46.753Z,983.25
2022-12-28T03:46:22.432Z,983.23
2022-12-28T03:47:21.308Z,983.34
2022-12-28T03:48:21.310Z,983.28
2022-12-28T03:49:21.309Z,983.30
2022-12-28T03:50:21.283Z,983.37
2022-12-28T03:51:21.256Z,983.34
2022-12-28T03:52:21.250Z,983.34
2022-12-28T03:53:21.241Z,983.31
2022-12-28T03:54:21.221Z,983.35
2022-12-28T03:55:21.212Z,983.37
2022-12-28T03:56:21.195Z,983.32
2022-12-28T03:57:21.175Z,983.35
2022-12-28T03:58:21.173Z,983.31
2022-12-28T03:59:21.151Z,983.22
2022-12-28T04:00:21.146Z,983.29
2022-12-28T04:01:21.224Z,983.29
2022-12-28T04:02:21.393Z,983.27
2022-12-28T04:03:21.234Z,983.30
2022-12-28T04:04:21.091Z,983.29
2022-12-28T04:05:21.096Z,983.16
2022-12-28T04:06:21.082Z,983.21
2022-12-28T04:07:21.047Z,983.27
2022-12-28T04:08:21.035Z,983.21
2022-12-28T04:09:21.023Z,983.18
2022-12-28T04:10:21.041Z,983.21
2022-12-28T04:11:20.994Z,983.19
2022-12-28T04:12:20.980Z,983.09
2022-12-28T04:13:20.967Z,983.08
2022-12-28T04:14:20.950Z,983.04
2022-12-28T04:15:20.940Z,983.03
2022-12-28T04:16:20.991Z,983.05
2022-12-28T04:17:20.913Z,983.02
2022-12-28T04:18:20.907Z,983.05
2022-12-28T04:19:20.888Z,983.00
2022-12-28T04:20:20.872Z,982.94
2022-12-28T04:21:20.888Z,982.93
2022-12-28T04:22:20.848Z,982.95
2022-12-28T04:23:20.831Z,982.90
2022-12-28T04:24:20.823Z,982.90
2022-12-28T04:25:20.812Z,982.87
2022-12-28T04:26:20.809Z,982.94
2022-12-28T04:27:20.783Z,982.89
2022-12-28T04:28:20.764Z,982.81
2022-12-28T04:29:20.749Z,982.83
2022-12-28T04:30:20.740Z,982.87
2022-12-28T04:31:20.817Z,982.91
2022-12-28T04:32:20.724Z,982.84
2022-12-28T04:33:20.700Z,982.95
2022-12-28T04:34:20.686Z,982.95
2022-12-28T04:35:20.673Z,982.88
2022-12-28T04:36:20.662Z,982.80
2022-12-28T04:37:20.672Z,982.85
2022-12-28T04:38:20.639Z,982.82
2022-12-28T04:39:20.625Z,982.85
2022-12-28T04:40:20.608Z,982.90
2022-12-28T04:41:20.592Z,982.89
2022-12-28T04:42:20.581Z,982.90
2022-12-28T04:43:20.571Z,982.95
2022-12-28T04:44:20.553Z,982.92
2022-12-28T04:45:22.397Z,982.95
2022-12-28T04:46:20.566Z,982.90
2022-12-28T04:47:20.517Z,982.92
2022-12-28T04:48:20.500Z,982.90
2022-12-28T04:49:20.489Z,982.89
2022-12-28T04:50:20.477Z,982.89
2022-12-28T04:51:20.460Z,982.89
2022-12-28T04:52:20.449Z,982.90
2022-12-28T04:53:20.458Z,982.86
2022-12-28T04:54:20.421Z,982.87
2022-12-28T04:55:32.903Z,982.85
2022-12-28T04:56:21.421Z,982.90
2022-12-28T04:57:20.380Z,982.96
2022-12-28T04:58:20.369Z,982.88
2022-12-28T04:59:20.354Z,982.85
2022-12-28T05:00:20.340Z,982.88
2022-12-28T05:01:20.470Z,982.90
2022-12-28T05:02:20.416Z,982.90
2022-12-28T05:03:20.311Z,982.90
2022-12-28T05:04:20.294Z,982.92
2022-12-28T05:05:20.277Z,982.87
2022-12-28T05:06:20.260Z,982.85
2022-12-28T05:07:20.247Z,982.82
2022-12-28T05:08:20.235Z,982.84
2022-12-28T05:09:20.245Z,982.86
2022-12-28T05:10:20.212Z,982.81
2022-12-28T05:11:20.202Z,982.78
2022-12-28T05:12:20.188Z,982.78
2022-12-28T05:13:20.167Z,982.76
2022-12-28T05:14:20.158Z,982.75
2022-12-28T05:15:20.145Z,982.70
2022-12-28T05:16:20.228Z,982.68
2022-12-28T05:17:20.120Z,982.71
2022-12-28T05:18:20.103Z,982.75
2022-12-28T05:19:20.092Z,982.68
2022-12-28T05:20:20.079Z,982.71
2022-12-28T05:21:20.061Z,982.71
2022-12-28T05:22:20.049Z,982.69
2022-12-28T05:23:20.045Z,982.71
2022-12-28T05:24:20.028Z,982.74
2022-12-28T05:25:20.044Z,982.72
2022-12-28T05:26:19.999Z,982.75
2022-12-28T05:27:19.983Z,982.78
2022-12-28T05:28:19.971Z,982.79
2022-12-28T05:29:19.960Z,982.75
2022-12-28T05:30:19.958Z,982.82
2022-12-28T05:31:19.999Z,982.78
2022-12-28T05:32:19.917Z,982.83
2022-12-28T05:33:19.903Z,982.78
2022-12-28T05:34:19.889Z,982.74
2022-12-28T05:35:19.875Z,982.71
2022-12-28T05:36:19.861Z,982.79
2022-12-28T05:37:22.130Z,982.78
2022-12-28T05:38:19.854Z,982.78
2022-12-28T05:39:19.825Z,982.69
2022-12-28T05:40:19.810Z,982.73
2022-12-28T05:41:19.851Z,982.78
2022-12-28T05:42:19.790Z,982.70
2022-12-28T05:43:19.771Z,982.72
2022-12-28T05:44:19.760Z,982.70
2022-12-28T05:45:19.751Z,982.81
2022-12-28T05:46:19.806Z,982.83
2022-12-28T05:47:19.719Z,982.77
2022-12-28T05:48:19.703Z,982.76
2022-12-28T05:49:19.697Z,982.73
2022-12-28T05:50:19.676Z,982.76
2022-12-28T05:51:19.668Z,982.76
2022-12-28T05:52:19.679Z,982.81
2022-12-28T05:53:19.640Z,982.79
2022-12-28T05:54:19.627Z,982.82
2022-12-28T05:55:19.615Z,982.80
2022-12-28T05:56:19.597Z,982.76
2022-12-28T05:57:19.618Z,982.70
2022-12-28T05:58:19.572Z,982.71
2022-12-28T05:59:19.567Z,982.69
2022-12-28T06:00:19.545Z,982.67
2022-12-28T06:01:19.570Z,982.70
2022-12-28T06:02:24.529Z,982.63
2022-12-28T06:03:19.571Z,982.62
2022-12-28T06:04:19.493Z,982.60
2022-12-28T06:05:19.489Z,982.64
2022-12-28T06:06:19.466Z,982.58
2022-12-28T06:07:19.454Z,982.61
2022-12-28T06:08:22.648Z,982.60
2022-12-28T06:09:19.429Z,982.57
2022-12-28T06:10:19.415Z,982.51
2022-12-28T06:11:19.408Z,982.48
2022-12-28T06:12:19.395Z,982.53
2022-12-28T06:13:19.404Z,982.45
2022-12-28T06:14:19.363Z,982.45
2022-12-28T06:15:19.349Z,982.42
2022-12-28T06:16:19.335Z,982.42
2022-12-28T06:17:19.324Z,982.38
2022-12-28T06:18:19.308Z,982.36
2022-12-28T06:19:19.297Z,982.33
2022-12-28T06:20:19.281Z,982.37
2022-12-28T06:21:19.274Z,982.31
2022-12-28T06:22:19.256Z,982.31
2022-12-28T06:23:19.245Z,982.32
2022-12-28T06:24:19.231Z,982.28
2022-12-28T06:25:19.217Z,982.30
2022-12-28T06:26:19.206Z,982.24
2022-12-28T06:27:19.190Z,982.20
2022-12-28T06:28:19.190Z,982.24
2022-12-28T06:29:19.195Z,982.21
2022-12-28T06:30:19.182Z,982.23
2022-12-28T06:31:19.247Z,982.17
2022-12-28T06:32:19.125Z,982.14
2022-12-28T06:33:19.110Z,982.12
2022-12-28T06:34:19.097Z,982.13
2022-12-28T06:35:19.086Z,982.09
2022-12-28T06:36:20.597Z,982.10
2022-12-28T06:37:19.060Z,982.14
2022-12-28T06:38:19.046Z,982.18
2022-12-28T06:39:19.036Z,982.09
2022-12-28T06:40:21.890Z,982.06
2022-12-28T06:41:20.049Z,982.05
2022-12-28T06:42:18.995Z,982.04
2022-12-28T06:43:18.979Z,982.03
2022-12-28T06:44:18.967Z,982.01
2022-12-28T06:45:18.976Z,982.06
2022-12-28T06:46:18.953Z,982.02
2022-12-28T06:47:18.926Z,982.09
2022-12-28T06:48:18.919Z,982.06
2022-12-28T06:49:18.907Z,982.09
2022-12-28T06:50:18.887Z,982.12
2022-12-28T06:51:18.876Z,982.17
2022-12-28T06:52:18.863Z,982.20
2022-12-28T06:53:18.850Z,982.13
2022-12-28T06:54:18.837Z,982.14
2022-12-28T06:55:18.836Z,982.15
2022-12-28T06:56:18.824Z,982.18
2022-12-28T06:57:18.795Z,982.08
2022-12-28T06:58:18.781Z,982.08
2022-12-28T06:59:18.771Z,982.09
2022-12-28T07:00:18.758Z,982.14
2022-12-28T07:01:18.895Z,982.11
2022-12-28T07:02:18.848Z,982.07
2022-12-28T07:03:18.744Z,982.06
2022-12-28T07:04:18.705Z,982.07
2022-12-28T07:05:18.695Z,982.13
2022-12-28T07:06:18.675Z,982.11
2022-12-28T07:07:18.666Z,982.11
2022-12-28T07:08:18.655Z,982.11
2022-12-28T07:09:18.645Z,982.08
2022-12-28T07:10:18.623Z,982.10
2022-12-28T07:11:18.612Z,982.10
2022-12-28T07:12:18.595Z,982.11
2022-12-28T07:13:21.882Z,982.04
2022-12-28T07:14:19.594Z,982.15
2022-12-28T07:15:18.563Z,982.01
2022-12-28T07:16:18.594Z,982.01
2022-12-28T07:17:18.559Z,982.02
2022-12-28T07:18:18.518Z,981.99
2022-12-28T07:19:18.502Z,981.99
2022-12-28T07:20:18.487Z,981.96
2022-12-28T07:21:18.483Z,981.89
2022-12-28T07:22:18.474Z,981.88
2022-12-28T07:23:18.451Z,981.95
2022-12-28T07:24:18.437Z,981.81
2022-12-28T07:25:18.424Z,981.93
2022-12-28T07:26:18.413Z,981.98
2022-12-28T07:27:18.395Z,981.90
2022-12-28T07:28:18.384Z,981.87
2022-12-28T07:29:18.371Z,981.84
2022-12-28T07:30:18.360Z,981.87
2022-12-28T07:31:18.460Z,981.91
2022-12-28T07:32:18.331Z,981.92
2022-12-28T07:33:18.345Z,981.86
2022-12-28T07:34:18.308Z,981.87
2022-12-28T07:35:18.292Z,981.88
2022-12-28T07:36:18.288Z,981.88
2022-12-28T07:37:18.267Z,981.86
2022-12-28T07:38:21.541Z,981.79
2022-12-28T07:39:18.239Z,981.82
2022-12-28T07:40:18.224Z,981.74
2022-12-28T07:41:18.212Z,981.75
2022-12-28T07:42:18.193Z,981.77
2022-12-28T07:43:18.188Z,981.80
2022-12-28T07:44:18.169Z,981.73
2022-12-28T07:45:18.159Z,981.72
2022-12-28T07:46:18.213Z,981.76
2022-12-28T07:47:18.136Z,981.79
2022-12-28T07:48:18.132Z,981.77
2022-12-28T07:49:18.125Z,981.78
2022-12-28T07:50:18.091Z,981.77
2022-12-28T07:51:18.082Z,981.73
2022-12-28T07:52:18.066Z,981.80
2022-12-28T07:53:22.073Z,981.76
2022-12-28T07:54:18.048Z,981.75
2022-12-28T07:55:18.024Z,981.76
2022-12-28T07:56:18.018Z,981.63
2022-12-28T07:57:18.001Z,981.65
2022-12-28T07:58:17.989Z,981.64
2022-12-28T07:59:17.990Z,981.69
2022-12-28T08:00:17.957Z,981.66
2022-12-28T08:01:18.176Z,981.65
2022-12-28T08:02:18.105Z,981.64
2022-12-28T08:03:17.991Z,981.68
2022-12-28T08:04:17.913Z,981.62
2022-12-28T08:05:17.953Z,981.61
2022-12-28T08:06:17.884Z,981.58
2022-12-28T08:07:17.871Z,981.57
2022-12-28T08:08:17.852Z,981.63
2022-12-28T08:09:17.866Z,981.63
2022-12-28T08:10:17.829Z,981.53
2022-12-28T08:11:17.820Z,981.56
2022-12-28T08:12:17.799Z,981.57
2022-12-28T08:13:17.794Z,981.59
2022-12-28T08:14:17.784Z,981.56
2022-12-28T08:15:17.772Z,981.59
2022-12-28T08:16:17.805Z,981.58
2022-12-28T08:17:21.193Z,981.55
2022-12-28T08:18:17.733Z,981.54
2022-12-28T08:19:17.731Z,981.55
2022-12-28T08:20:17.711Z,981.56
2022-12-28T08:21:17.743Z,981.59
2022-12-28T08:22:17.683Z,981.61
2022-12-28T08:23:17.669Z,981.61
2022-12-28T08:24:17.706Z,981.63
2022-12-28T08:25:17.655Z,981.58
2022-12-28T08:26:17.636Z,981.62
2022-12-28T08:27:17.626Z,981.57
2022-12-28T08:28:17.600Z,981.59
2022-12-28T08:29:17.577Z,981.58
2022-12-28T08:30:17.595Z,981.64
2022-12-28T08:31:17.616Z,981.59
2022-12-28T08:32:17.549Z,981.59
2022-12-28T08:33:17.536Z,981.56
2022-12-28T08:34:17.525Z,981.64
2022-12-28T08:35:17.510Z,981.49
2022-12-28T08:36:17.499Z,981.55
2022-12-28T08:37:17.505Z,981.51
2022-12-28T08:38:17.461Z,981.56
2022-12-28T08:39:17.450Z,981.50
2022-12-28T08:40:17.440Z,981.47
2022-12-28T08:41:17.422Z,981.45
2022-12-28T08:42:17.415Z,981.50
2022-12-28T08:43:17.404Z,981.50
2022-12-28T08:44:17.390Z,981.42
2022-12-28T08:45:17.379Z,981.42
2022-12-28T08:46:17.541Z,981.47
2022-12-28T08:47:17.433Z,981.51
2022-12-28T08:48:17.330Z,981.49
2022-12-28T08:49:17.317Z,981.39
2022-12-28T08:50:20.039Z,981.44
2022-12-28T08:51:17.287Z,981.47
2022-12-28T08:52:17.282Z,981.43
2022-12-28T08:53:17.292Z,981.44
2022-12-28T08:54:17.252Z,981.40
2022-12-28T08:55:17.240Z,981.38
2022-12-28T08:56:17.223Z,981.50
2022-12-28T08:57:17.205Z,981.45
2022-12-28T08:58:17.192Z,981.43
2022-12-28T08:59:17.184Z,981.41
2022-12-28T09:00:17.178Z,981.34
2022-12-28T09:01:17.315Z,981.31
2022-12-28T09:02:17.293Z,981.35
2022-12-28T09:03:17.293Z,981.32
2022-12-28T09:04:17.157Z,981.30
2022-12-28T09:05:17.097Z,981.25
2022-12-28T09:06:17.087Z,981.31
2022-12-28T09:07:17.072Z,981.34
2022-12-28T09:08:17.055Z,981.30
2022-12-28T09:09:17.077Z,981.34
2022-12-28T09:10:17.053Z,981.37
2022-12-28T09:11:17.018Z,981.36
2022-12-28T09:12:17.005Z,981.41
2022-12-28T09:13:16.998Z,981.28
2022-12-28T09:14:24.433Z,981.23
2022-12-28T09:15:18.005Z,981.20
2022-12-28T09:16:17.012Z,981.25
2022-12-28T09:17:16.945Z,981.28
2022-12-28T09:18:16.923Z,981.26
2022-12-28T09:19:16.921Z,981.24
2022-12-28T09:20:16.897Z,981.20
2022-12-28T09:21:16.887Z,981.18
2022-12-28T09:22:16.870Z,981.13
2022-12-28T09:23:16.860Z,981.17
2022-12-28T09:24:16.895Z,981.19
2022-12-28T09:25:16.860Z,981.17
2022-12-28T09:26:16.821Z,981.19
2022-12-28T09:27:16.808Z,981.16
2022-12-28T09:28:16.797Z,981.16
2022-12-28T09:29:16.782Z,981.17
2022-12-28T09:30:16.771Z,981.21
2022-12-28T09:31:16.790Z,981.16
2022-12-28T09:32:16.738Z,981.29
2022-12-28T09:33:16.732Z,981.28
2022-12-28T09:34:36.076Z,981.22
2022-12-28T09:35:17.723Z,981.23
2022-12-28T09:36:16.687Z,981.24
2022-12-28T09:37:16.679Z,981.20
2022-12-28T09:38:16.659Z,981.11
2022-12-28T09:39:16.739Z,981.17
2022-12-28T09:40:16.635Z,981.12
2022-12-28T09:41:16.643Z,981.08
2022-12-28T09:42:16.635Z,981.08
2022-12-28T09:43:16.601Z,981.13
2022-12-28T09:44:16.578Z,981.13
2022-12-28T09:45:16.579Z,981.06
2022-12-28T09:46:16.579Z,981.06
2022-12-28T09:47:16.549Z,981.08
2022-12-28T09:48:16.536Z,981.10
2022-12-28T09:49:16.513Z,981.07
2022-12-28T09:50:16.535Z,981.04
2022-12-28T09:51:16.488Z,981.01
2022-12-28T09:52:16.470Z,981.06
2022-12-28T09:53:16.461Z,981.09
2022-12-28T09:54:16.452Z,980.97
2022-12-28T09:55:16.432Z,981.03
2022-12-28T09:56:16.430Z,981.02
2022-12-28T09:57:16.448Z,980.93
2022-12-28T09:58:16.410Z,980.90
2022-12-28T09:59:16.588Z,980.96
2022-12-28T10:00:16.967Z,980.85
2022-12-28T10:01:16.455Z,980.90
2022-12-28T10:02:16.417Z,980.97
2022-12-28T10:03:16.372Z,980.96
2022-12-28T10:04:16.312Z,980.96
2022-12-28T10:05:16.304Z,980.89
2022-12-28T10:06:16.302Z,980.89
2022-12-28T10:07:16.274Z,980.83
2022-12-28T10:08:16.269Z,980.81
2022-12-28T10:09:16.248Z,980.84
2022-12-28T10:10:16.235Z,980.86
2022-12-28T10:11:16.223Z,980.79
2022-12-28T10:12:16.215Z,980.81
2022-12-28T10:13:45.659Z,980.77
2022-12-28T10:14:17.202Z,980.75
2022-12-28T10:15:16.176Z,980.77
2022-12-28T10:16:16.204Z,980.75
2022-12-28T10:17:16.143Z,980.69
2022-12-28T10:18:16.132Z,980.77
2022-12-28T10:19:16.143Z,980.60
2022-12-28T10:20:16.105Z,980.59
2022-12-28T10:21:16.094Z,980.64
2022-12-28T10:22:16.079Z,980.57
2022-12-28T10:23:16.067Z,980.59
2022-12-28T10:24:32.679Z,980.58
2022-12-28T10:25:17.129Z,980.55
2022-12-28T10:26:16.027Z,980.63
2022-12-28T10:27:16.028Z,980.60
2022-12-28T10:28:15.999Z,980.53
2022-12-28T10:29:16.003Z,980.46
2022-12-28T10:30:15.978Z,980.45
2022-12-28T10:31:16.029Z,980.46
2022-12-28T10:32:15.943Z,980.41
2022-12-28T10:33:15.946Z,980.35
2022-12-28T10:34:15.937Z,980.40
2022-12-28T10:35:15.914Z,980.28
2022-12-28T10:36:16.164Z,980.27
2022-12-28T10:37:16.004Z,980.31
2022-12-28T10:38:15.867Z,980.34
2022-12-28T10:39:15.852Z,980.22
2022-12-28T10:40:15.864Z,980.25
2022-12-28T10:41:15.848Z,980.21
2022-12-28T10:42:15.815Z,980.17
2022-12-28T10:43:15.803Z,980.20
2022-12-28T10:44:39.453Z,980.18
2022-12-28T10:45:16.906Z,980.22
2022-12-28T10:46:15.789Z,980.16
2022-12-28T10:47:15.743Z,980.14
2022-12-28T10:48:16.016Z,980.14
2022-12-28T10:49:15.998Z,980.09
2022-12-28T10:51:15.693Z,980.08
2022-12-28T10:52:15.689Z,980.15
2022-12-28T10:53:15.676Z,980.04
2022-12-28T10:54:15.650Z,980.03
2022-12-28T10:55:16.657Z,980.01
2022-12-28T10:56:17.437Z,979.96
2022-12-28T10:57:15.614Z,979.96
2022-12-28T10:58:33.372Z,979.85
2022-12-28T10:59:16.607Z,979.98
2022-12-28T11:00:15.573Z,979.90
2022-12-28T11:01:15.801Z,979.86
2022-12-28T11:02:15.741Z,979.89
2022-12-28T11:03:15.601Z,979.92
2022-12-28T11:04:15.530Z,979.92
2022-12-28T11:05:15.502Z,979.89
2022-12-28T11:06:15.490Z,979.89
2022-12-28T11:07:15.473Z,979.85
2022-12-28T11:08:15.472Z,979.86
2022-12-28T11:09:15.472Z,979.81
2022-12-28T11:10:15.460Z,979.85
2022-12-28T11:11:15.419Z,979.78
2022-12-28T11:12:15.408Z,979.79
2022-12-28T11:13:21.445Z,979.78
2022-12-28T11:14:16.407Z,979.72
2022-12-28T11:15:15.383Z,979.68
2022-12-28T11:16:15.394Z,979.65
2022-12-28T11:17:15.388Z,979.58
2022-12-28T11:18:15.331Z,979.59
2022-12-28T11:19:15.315Z,979.60
2022-12-28T11:20:15.317Z,979.61
2022-12-28T11:21:15.304Z,979.56
2022-12-28T11:22:15.281Z,979.64
2022-12-28T11:23:15.263Z,979.51
2022-12-28T11:24:15.261Z,979.57
2022-12-28T11:25:15.236Z,979.52
2022-12-28T11:26:15.228Z,979.51
2022-12-28T11:27:15.227Z,979.46
2022-12-28T11:28:15.200Z,979.45
2022-12-28T11:29:15.196Z,979.41
2022-12-28T11:30:17.649Z,979.41
2022-12-28T11:31:15.181Z,979.45
2022-12-28T11:32:15.145Z,979.45
2022-12-28T11:33:15.148Z,979.48
2022-12-28T11:34:15.124Z,979.53
2022-12-28T11:35:15.108Z,979.45
2022-12-28T11:36:15.090Z,979.47
2022-12-28T11:37:15.081Z,979.36
2022-12-28T11:38:15.061Z,979.37
2022-12-28T11:39:15.048Z,979.41
2022-12-28T11:40:15.046Z,979.38
2022-12-28T11:41:15.018Z,979.27
2022-12-28T11:42:40.413Z,979.28
2022-12-28T11:43:16.016Z,979.23
2022-12-28T11:44:14.981Z,979.16
2022-12-28T11:45:14.962Z,979.18
2022-12-28T11:46:14.970Z,979.06
2022-12-28T11:47:14.980Z,979.10
2022-12-28T11:48:14.973Z,979.18
2022-12-28T11:49:14.931Z,979.09
2022-12-28T11:50:14.975Z,979.07
2022-12-28T11:51:14.885Z,979.09
2022-12-28T11:52:14.871Z,979.09
2022-12-28T11:53:14.859Z,979.07
2022-12-28T11:54:14.890Z,979.09
2022-12-28T11:55:14.914Z,979.04
2022-12-28T11:56:14.867Z,979.05
2022-12-28T11:57:14.865Z,979.00
2022-12-28T11:58:14.845Z,978.99
2022-12-28T11:59:14.831Z,978.91
2022-12-28T12:00:20.099Z,978.98
2022-12-28T12:01:16.268Z,978.97
2022-12-28T12:02:14.764Z,978.96
2022-12-28T12:03:14.829Z,978.97
2022-12-28T12:04:14.764Z,978.93
2022-12-28T12:05:14.774Z,978.95
2022-12-28T12:06:14.732Z,978.91
2022-12-28T12:07:14.744Z,978.90
2022-12-28T12:08:14.732Z,978.85
2022-12-28T12:09:14.693Z,978.78
2022-12-28T12:10:14.777Z,978.88
2022-12-28T12:11:14.703Z,978.82
2022-12-28T12:12:17.946Z,978.88
2022-12-28T12:13:14.649Z,978.85
2022-12-28T12:14:14.622Z,978.80
2022-12-28T12:15:14.612Z,978.75
2022-12-28T12:16:14.677Z,978.74
2022-12-28T12:17:14.591Z,978.64
2022-12-28T12:18:14.606Z,978.74
2022-12-28T12:19:14.560Z,978.79
2022-12-28T12:20:14.567Z,978.87
2022-12-28T12:21:16.118Z,978.83
2022-12-28T12:22:14.537Z,978.80
2022-12-28T12:23:14.455Z,978.77
2022-12-28T12:24:14.443Z,978.79
2022-12-28T12:25:14.430Z,978.76
2022-12-28T12:26:14.417Z,978.73
2022-12-28T12:27:14.402Z,978.72
2022-12-28T12:28:14.390Z,978.63
2022-12-28T12:29:14.375Z,978.59